• Join FlightAware (Why Join?)
  • Login
  • US Flag 
09:00PM EDT


 

Airport Tracker/Info


-or-


 

Live Flight TrackerFlight Track Log ✈ USC110 ✈ 09-Jun-2013 ✈ KSUS - KFTY

Flight Track Log - Related Links

Times and Time Zones

All times are in EDT time to prevent confusion due to time zone crossing. See the USC110 flight status page for this flight to view local times or setup timezone preferences in your user account.

Time Position Orientation Groundspeed Altitude Reporting Facility
EDT Latitude Longitude Course Direction KTS MPH feet Rate Location/Type
12:42PM 38.6167 -90.7000 142° Southeast 96 110 2,500  Level Gateway (St. Louis) TRACON
12:43PM 38.6000 -90.6833 142° Southeast 95 109 3,300 720 Climbing Gateway (St. Louis) TRACON
12:44PM 38.5889 -90.6819 174° South 99 114 3,500 480 Climbing Kansas City Center
12:45PM 38.5686 -90.6583 138° Southeast 98 113 4,000 540 Climbing Kansas City Center
12:46PM 38.5447 -90.6294 137° Southeast 112 129 4,600 540 Climbing Kansas City Center
12:47PM 38.5133 -90.5919 137° Southeast 126 145 5,200 480 Climbing Kansas City Center
12:48PM 38.4721 -90.3902 142° Southeast  Level Estimated
12:48PM 38.4864 -90.5592 136° Southeast 132 152 5,700  Level Kansas City Center
12:49PM 38.4592 -90.5250 135° Southeast 136 157 6,200 480 Climbing Kansas City Center
12:50PM 38.4314 -90.4917 137° Southeast 138 159 6,700 360 Climbing Kansas City Center
12:51PM 38.4033 -90.4572 136° Southeast 139 160 7,000 120 Climbing Kansas City Center
12:52PM 38.3642 -90.4103 137° Southeast 156 180 7,000  Level Kansas City Center
12:53PM 38.3303 -90.3692 136° Southeast 166 191 7,000  Level Kansas City Center
12:54PM 38.2978 -90.3294 136° Southeast 163 188 7,000  Level Kansas City Center
12:55PM 38.2647 -90.2897 137° Southeast 163 188 7,000  Level Kansas City Center
12:56PM 38.2328 -90.2514 137° Southeast 161 185 7,000  Level Kansas City Center
12:57PM 38.2006 -90.2122 136° Southeast 161 185 7,000  Level Kansas City Center
12:58PM 38.1606 -90.1644 137° Southeast 164 189 7,000  Level Kansas City Center
12:59PM 38.1269 -90.1250 137° Southeast 165 190 7,000  Level Kansas City Center
01:00PM 38.0953 -90.0839 134° Southeast 165 190 7,000  Level Kansas City Center
01:01PM 38.0583 -90.0386 136° Southeast 161 185 7,000  Level Kansas City Center
01:02PM 38.0256 -90.0011 138° Southeast 159 183 7,000  Level Kansas City Center
01:03PM 37.9931 -89.9600 135° Southeast 164 189 7,000  Level Kansas City Center
01:04PM 37.9561 -89.9172 138° Southeast 165 190 7,000  Level Kansas City Center
01:05PM 37.9225 -89.8775 137° Southeast 166 191 7,000  Level Kansas City Center
01:06PM 37.8867 -89.8353 137° Southeast 164 189 7,000  Level Kansas City Center
01:08PM 37.8542 -89.7958 136° Southeast 163 188 7,000  Level Kansas City Center
01:09PM 37.8236 -89.7603 137° Southeast 166 191 7,000  Level Kansas City Center
01:10PM 37.7831 -89.7128 137° Southeast 166 191 7,000  Level Kansas City Center
01:11PM 37.7503 -89.6722 136° Southeast 166 191 7,000  Level Kansas City Center
01:12PM 37.7178 -89.6322 136° Southeast 164 189 7,000  Level Kansas City Center
01:13PM 37.6833 -89.5947 139° Southeast 163 188 7,000  Level Kansas City Center
01:14PM 37.6497 -89.5569 138° Southeast 163 188 7,000  Level Kansas City Center
01:15PM 37.6164 -89.5169 136° Southeast 164 189 7,000  Level Kansas City Center
01:16PM 37.5756 -89.4672 136° Southeast 169 194 7,000  Level Kansas City Center
01:17PM 37.5433 -89.4308 138° Southeast 167 192 7,000  Level Kansas City Center
01:18PM 37.5103 -89.3922 137° Southeast 164 189 7,000  Level Kansas City Center
01:19PM 37.4772 -89.3511 135° Southeast 165 190 7,000  Level Kansas City Center
01:20PM 37.4378 -89.3053 137° Southeast 162 186 7,000  Level Kansas City Center
01:21PM 37.4039 -89.2675 138° Southeast 161 185 7,000  Level Kansas City Center
01:22PM 37.3708 -89.2283 137° Southeast 162 186 7,000  Level Kansas City Center
01:23PM 37.3383 -89.1878 135° Southeast 164 189 7,000  Level Kansas City Center
01:24PM 37.3044 -89.1500 138° Southeast 163 188 7,000  Level Kansas City Center
01:25PM 37.2719 -89.1119 137° Southeast 160 184 7,000 60 Level Kansas City Center
01:26PM 37.2506 -89.0931 145° Southeast 159 183 7,100 60 Climbing Memphis Center
01:27PM 37.2167 -89.0544 138° Southeast 159 183 7,100  Level Memphis Center
01:28PM 37.1850 -89.0161 136° Southeast 159 183 7,100  Level Memphis Center
01:29PM 37.1514 -88.9775 138° Southeast 159 183 7,100  Level Memphis Center
01:30PM 37.1197 -88.9392 136° Southeast 159 183 7,100  Level Memphis Center
01:31PM 37.0858 -88.9008 138° Southeast 159 183 7,100  Level Memphis Center
01:32PM 37.0542 -88.8597 134° Southeast 159 183 7,100  Level Memphis Center
01:33PM 37.0203 -88.8214 138° Southeast 159 183 7,100  Level Memphis Center
01:34PM 36.9886 -88.7806 134° Southeast 159 183 7,100  Level Memphis Center
01:35PM 36.9589 -88.7369 130° Southeast 164 189 7,100  Level Memphis Center
01:36PM 36.9311 -88.6933 129° Southeast 169 194 7,100  Level Memphis Center
01:37PM 36.9014 -88.6497 130° Southeast 163 188 7,100  Level Memphis Center
01:38PM 36.8717 -88.6117 134° Southeast 158 182 7,100  Level Memphis Center
01:39PM 36.8378 -88.5786 142° Southeast 158 182 7,100  Level Memphis Center
01:40PM 36.8061 -88.5431 138° Southeast 152 175 7,100  Level Memphis Center
01:41PM 36.7722 -88.5100 142° Southeast 152 175 7,100 -60 Level Memphis Center
01:42PM 36.7406 -88.4772 140° Southeast 152 175 7,000  Descending Memphis Center
01:43PM 36.7086 -88.4417 138° Southeast 159 183 7,100  Climbing Memphis Center
01:44PM 36.6747 -88.4064 140° Southeast 159 183 7,000  Descending Memphis Center
01:45PM 36.6408 -88.3733 142° Southeast 159 183 7,100  Climbing Memphis Center
01:46PM 36.6069 -88.3381 140° Southeast 159 183 7,000  Descending Memphis Center
01:47PM 36.5731 -88.3053 142° Southeast 159 183 7,100  Climbing Memphis Center
01:48PM 36.5411 -88.2700 138° Southeast 159 183 7,100  Level Memphis Center
01:49PM 36.5072 -88.2347 140° Southeast 159 183 7,100 -60 Level Memphis Center
01:50PM 36.4775 -88.1942 132° Southeast 159 183 7,000  Descending Memphis Center
01:51PM 36.4494 -88.1511 129° Southeast 159 183 7,100  Climbing Memphis Center
01:52PM 36.4133 -88.1031 133° Southeast 165 190 7,100  Level Memphis Center
01:53PM 36.3853 -88.0600 129° Southeast 165 190 7,100  Level Memphis Center
01:54PM 36.3575 -88.0144 127° Southeast 165 190 7,100 -60 Level Memphis Center
01:55PM 36.3275 -87.9717 131° Southeast 160 184 7,000  Descending Memphis Center
01:56PM 36.2994 -87.9261 127° Southeast 160 184 7,100  Climbing Memphis Center
01:57PM 36.2736 -87.8806 125° Southeast 160 184 7,000  Descending Memphis Center
01:58PM 36.2453 -87.8300 125° Southeast 166 191 7,100  Climbing Memphis Center
01:59PM 36.2214 -87.7817 121° Southeast 171 197 7,100  Level Memphis Center
02:00PM 36.1953 -87.7311 123° Southeast 171 197 7,100 -60 Level Memphis Center
02:01PM 36.1694 -87.6883 127° Southeast 171 197 7,000 -60 Descending Memphis Center
02:02PM 36.1456 -87.6403 122° Southeast 171 197 7,000  Level Memphis Center
02:03PM 36.1194 -87.5947 125° Southeast 165 190 7,100  Climbing Memphis Center
02:04PM 36.0914 -87.5494 127° Southeast 166 191 7,000 -60 Descending Memphis Center
02:05PM 36.0611 -87.5069 131° Southeast 166 191 7,000  Level Memphis Center
02:06PM 36.0331 -87.4669 131° Southeast 166 191 7,100  Climbing Memphis Center
02:07PM 36.0028 -87.4217 130° Southeast 161 185 7,100  Level Memphis Center
02:08PM 35.9725 -87.3742 128° Southeast 161 185 7,100  Level Memphis Center
02:09PM 35.9422 -87.3317 131° Southeast 161 185 7,100  Level Memphis Center
02:10PM 35.9142 -87.2892 129° Southeast 161 185 7,100 -60 Level Memphis Center
02:11PM 35.8861 -87.2492 131° Southeast 161 185 7,000  Descending Memphis Center
02:12PM 35.8558 -87.2067 131° Southeast 161 185 7,100  Climbing Memphis Center
02:13PM 35.8256 -87.1644 131° Southeast 161 185 7,100  Level Memphis Center
02:14PM 35.7994 -87.1219 127° Southeast 161 185 7,100 -60 Level Memphis Center
02:15PM 35.7692 -87.0794 131° Southeast 161 185 7,000  Descending Memphis Center
02:16PM 35.7408 -87.0397 131° Southeast 161 185 7,100  Climbing Memphis Center
02:17PM 35.7106 -86.9950 130° Southeast 161 185 7,100 -60 Level Memphis Center
02:18PM 35.6822 -86.9553 131° Southeast 161 185 7,000  Descending Memphis Center
02:19PM 35.6561 -86.9153 129° Southeast 161 185 7,100  Climbing Memphis Center
02:20PM 35.6258 -86.8733 132° Southeast 161 185 7,100 -60 Level Memphis Center
02:21PM 35.5975 -86.8311 130° Southeast 161 185 7,000 -1,080 Descending Memphis Center
02:22PM 35.5672 -86.7889 131° Southeast 161 185 5,000 -1,020 Descending Memphis Center
02:23PM 35.5367 -86.7419 129° Southeast 161 185 5,000  Level Memphis Center
02:24PM 35.5061 -86.7022 133° Southeast 161 185 5,000  Level Memphis Center
02:25PM 35.4756 -86.6578 130° Southeast 161 185 5,000  Level Memphis Center
02:26PM 35.4431 -86.6133 132° Southeast 161 185 5,000  Level Memphis Center
02:27PM 35.4125 -86.5689 130° Southeast 161 185 5,000  Level Memphis Center
02:28PM 35.3842 -86.5244 128° Southeast 161 185 5,000  Level Memphis Center
02:29PM 35.3536 -86.4825 132° Southeast 161 185 5,000  Level Memphis Center
02:30PM 35.3250 -86.4406 130° Southeast 161 185 5,000  Level Memphis Center
02:31PM 35.2967 -86.3986 130° Southeast 161 185 5,000  Level Memphis Center
02:32PM 35.2661 -86.3594 134° Southeast 161 185 5,000  Level Memphis Center
02:33PM 35.2356 -86.3150 130° Southeast 161 185 5,000  Level Memphis Center
02:34PM 35.2072 -86.2758 132° Southeast 161 185 5,000  Level Memphis Center
02:35PM 35.1806 -86.2314 126° Southeast 161 185 5,000  Level Memphis Center
02:36PM 35.1500 -86.1897 132° Southeast 161 185 5,000  Level Memphis Center
02:37PM 35.1239 -86.1531 131° Southeast 161 185 5,000  Level Memphis Center
02:38PM 35.0997 -86.1161 129° Southeast 151 174 5,000  Level Memphis Center
02:39PM 35.0733 -86.0794 131° Southeast 141 162 5,000 60 Level Memphis Center
02:40PM 35.0514 -86.0450 128° Southeast 136 157 5,200 720 Climbing Memphis Center
02:40PM 35.0428 -86.0353 137° Southeast 135 155 6,000 1,080 Climbing Atlanta Center
02:41PM 35.0244 -86.0119 134° Southeast 119 137 6,700 480 Climbing Atlanta Center
02:42PM 35.0042 -85.9786 127° Southeast 114 131 7,000 120 Climbing Atlanta Center
02:43PM 34.9733 -85.9372 132° Southeast 132 152 7,000  Level Atlanta Center
02:44PM 34.9447 -85.8986 132° Southeast 150 173 7,000  Level Atlanta Center
02:45PM 34.9183 -85.8600 130° Southeast 149 171 7,000  Level Atlanta Center
02:46PM 34.8936 -85.8267 132° Southeast 143 165 7,000  Level Atlanta Center
02:47PM 34.8631 -85.7856 132° Southeast 149 171 7,000  Level Atlanta Center
02:48PM 34.8344 -85.7444 130° Southeast 149 171 7,000  Level Atlanta Center
02:49PM 34.8078 -85.7083 132° Southeast 149 171 7,000  Level Atlanta Center
02:50PM 34.7831 -85.6750 132° Southeast 143 165 7,000  Level Atlanta Center
02:51PM 34.7606 -85.6392 127° Southeast 138 159 7,000  Level Atlanta Center
02:52PM 34.7381 -85.6083 132° Southeast 133 153 7,000  Level Atlanta Center
02:53PM 34.7114 -85.5725 132° Southeast 133 153 7,100  Climbing Atlanta Center
02:54PM 34.6908 -85.5419 129° Southeast 133 153 7,000  Descending Atlanta Center
02:55PM 34.6661 -85.5086 132° Southeast 133 153 7,100  Climbing Atlanta Center
02:56PM 34.6436 -85.4753 129° Southeast 133 153 7,000 -60 Descending Atlanta Center
02:57PM 34.6169 -85.4422 134° Southeast 127 146 7,000  Level Atlanta Center
02:58PM 34.5922 -85.4064 130° Southeast 132 152 7,000  Level Atlanta Center
02:59PM 34.5636 -85.3656 130° Southeast 145 167 7,000  Level Atlanta Center
03:00PM 34.5325 -85.3272 135° Southeast 150 173 7,000  Level Atlanta Center
03:01PM 34.5058 -85.2892 130° Southeast 150 173 7,000  Level Atlanta Center
03:02PM 34.4769 -85.2483 131° Southeast 150 173 7,000  Level Atlanta Center
03:03PM 34.4503 -85.2100 130° Southeast 150 173 7,000  Level Atlanta Center
03:04PM 34.4214 -85.1719 133° Southeast 150 173 7,000  Level Atlanta Center
03:05PM 34.3925 -85.1314 131° Southeast 150 173 7,000  Level Atlanta Center
03:06PM 34.3636 -85.0931 132° Southeast 150 173 7,000  Level Atlanta Center
03:07PM 34.3347 -85.0525 131° Southeast 150 173 7,000 -180 Level Atlanta Center
03:08PM 34.3017 -85.0094 133° Southeast 150 173 6,700 -480 Descending Atlanta Center
03:09PM 34.2708 -84.9664 131° Southeast 161 185 6,100 -600 Descending Atlanta Center
03:10PM 34.2378 -84.9233 133° Southeast 166 191 5,500 -600 Descending Atlanta Center
03:11PM 34.2089 -84.8828 131° Southeast 166 191 5,000 -300 Descending Atlanta Center
03:12PM 34.1800 -84.8397 129° Southeast 166 191 5,000  Level Atlanta Center
03:13PM 34.1614 -84.7944 116° Southeast 155 178 5,000  Level Atlanta Center
03:14PM 34.1408 -84.7592 125° Southeast 134 154 5,000  Level Atlanta Center
03:15PM 34.1200 -84.7289 130° Southeast 127 146 5,000 -240 Level Atlanta Center
03:16PM 34.0972 -84.6936 128° Southeast 127 146 4,600 -540 Descending Atlanta Center
03:17PM 34.0703 -84.6608 135° Southeast 138 159 4,000 -300 Descending Atlanta Center
03:18PM 34.0433 -84.6231 131° Southeast 144 166 4,000  Level Atlanta Center
03:21PM 33.9667 -84.5333 136° Southeast 138 159 4,000 -120 Level Atlanta TRACON
03:22PM 33.9333 -84.5167 157° South 143 165 3,700 -420 Descending Atlanta TRACON
03:22PM 33.9000 -84.5167 180° South 173 199 3,300 -420 Descending Atlanta TRACON
03:24PM 33.8500 -84.5000 165° South 161 185 2,900 -780 Descending Atlanta TRACON
03:25PM 33.8000 -84.5000 180° South 159 183 1,700 -1,200 Descending Atlanta TRACON